createdAt,value
2022-09-20T00:01:38.396Z,29.43
2022-09-20T00:04:07.158Z,24.07
2022-09-20T00:06:35.880Z,19.53
2022-09-20T00:09:05.825Z,21.67
2022-09-20T00:11:36.430Z,32.40
2022-09-20T00:14:08.926Z,27.13
2022-09-20T00:16:41.203Z,21.67
2022-09-20T00:19:20.086Z,37.00
2022-09-20T00:21:48.574Z,24.53
2022-09-20T00:24:16.261Z,30.10
2022-09-20T00:26:46.691Z,26.10
2022-09-20T00:29:14.485Z,21.70
2022-09-20T00:31:43.110Z,26.47
2022-09-20T00:34:30.677Z,25.33
2022-09-20T00:36:58.429Z,31.37
2022-09-20T00:39:26.505Z,32.70
2022-09-20T00:41:54.130Z,23.37
2022-09-20T00:44:56.178Z,29.00
2022-09-20T00:47:49.133Z,40.27
2022-09-20T00:50:59.797Z,29.03
2022-09-20T00:53:45.346Z,25.80
2022-09-20T00:56:27.844Z,37.50
2022-09-20T00:59:35.044Z,24.47
2022-09-20T01:02:30.985Z,32.73
2022-09-20T01:05:00.123Z,27.57
2022-09-20T01:07:29.965Z,34.13
2022-09-20T01:09:57.597Z,38.70
2022-09-20T01:12:34.718Z,29.47
2022-09-20T01:15:08.330Z,36.60
2022-09-20T01:17:43.132Z,33.03
2022-09-20T01:20:19.636Z,40.10
2022-09-20T01:23:48.687Z,33.40
2022-09-20T01:26:48.737Z,41.50
2022-09-20T01:30:09.051Z,37.47
2022-09-20T01:33:55.011Z,33.40
2022-09-20T01:37:12.537Z,38.13
2022-09-20T01:40:56.975Z,26.53
2022-09-20T01:44:05.929Z,34.93
2022-09-20T01:46:38.132Z,52.93
2022-09-20T01:49:40.502Z,32.40
2022-09-20T01:53:34.441Z,43.10
2022-09-20T01:57:33.013Z,29.30
2022-09-20T02:00:17.754Z,38.77
2022-09-20T02:04:06.119Z,43.73
2022-09-20T02:07:22.333Z,49.37
2022-09-20T02:10:43.036Z,38.67
2022-09-20T02:14:03.681Z,29.90
2022-09-20T02:16:57.877Z,32.53
2022-09-20T02:19:49.659Z,45.67
2022-09-20T02:22:27.364Z,38.77
2022-09-20T02:26:11.233Z,40.83
2022-09-20T02:29:12.908Z,49.17
2022-09-20T02:32:46.776Z,44.80
2022-09-20T02:36:08.164Z,34.87
2022-09-20T02:39:17.362Z,43.13
2022-09-20T02:42:11.232Z,43.80
2022-09-20T02:45:02.001Z,52.33
2022-09-20T02:47:45.739Z,48.80
2022-09-20T02:51:25.362Z,43.37
2022-09-20T02:54:23.106Z,40.93
2022-09-20T02:57:18.622Z,34.70
2022-09-20T03:00:11.021Z,42.27
2022-09-20T03:03:13.594Z,50.73
2022-09-20T03:06:43.606Z,57.47
2022-09-20T03:10:19.599Z,40.47
2022-09-20T03:13:25.596Z,35.20
2022-09-20T03:16:55.329Z,33.53
2022-09-20T03:20:06.412Z,36.67
2022-09-20T03:23:31.445Z,40.07
2022-09-20T03:26:46.998Z,40.50
2022-09-20T03:29:47.712Z,52.63
2022-09-20T03:33:07.493Z,36.23
2022-09-20T03:36:29.789Z,42.67
2022-09-20T03:39:41.700Z,29.33
2022-09-20T03:42:29.927Z,41.70
2022-09-20T03:46:08.093Z,38.80
2022-09-20T03:49:32.167Z,44.83
2022-09-20T03:52:58.761Z,38.50
2022-09-20T03:56:34.871Z,44.50
2022-09-20T04:00:03.835Z,52.27
2022-09-20T04:03:29.375Z,43.57
2022-09-20T04:07:12.439Z,48.50
2022-09-20T04:10:47.200Z,47.83
2022-09-20T04:13:50.889Z,37.03
2022-09-20T04:17:15.754Z,62.93
2022-09-20T04:20:46.596Z,59.90
2022-09-20T04:23:57.129Z,46.23
2022-09-20T04:26:35.261Z,50.97
2022-09-20T04:29:53.801Z,44.50
2022-09-20T04:33:04.618Z,58.97
2022-09-20T04:36:37.641Z,51.77
2022-09-20T04:40:04.120Z,60.70
2022-09-20T04:43:33.173Z,52.70
2022-09-20T04:47:35.089Z,63.87
2022-09-20T04:50:43.095Z,53.43
2022-09-20T04:54:03.730Z,74.47
2022-09-20T04:57:02.888Z,52.70
2022-09-20T05:00:12.861Z,57.60
2022-09-20T05:03:19.004Z,61.20
2022-09-20T05:06:14.468Z,64.73
2022-09-20T05:10:03.600Z,53.57
2022-09-20T05:13:40.047Z,62.00
2022-09-20T05:16:54.264Z,73.97
2022-09-20T05:20:24.396Z,60.13
2022-09-20T05:23:17.432Z,49.53
2022-09-20T05:26:39.592Z,47.37
2022-09-20T05:29:42.453Z,47.70
2022-09-20T05:32:41.516Z,48.13
2022-09-20T05:35:38.306Z,48.60
2022-09-20T05:38:52.955Z,43.13
2022-09-20T05:41:59.951Z,52.67
2022-09-20T05:45:34.808Z,38.87
2022-09-20T05:48:26.691Z,50.23
2022-09-20T05:51:37.496Z,41.77
2022-09-20T05:55:16.179Z,47.80
2022-09-20T05:58:44.952Z,47.93
2022-09-20T06:02:00.647Z,33.60
2022-09-20T06:05:11.308Z,38.87
2022-09-20T06:09:13.597Z,50.83
2022-09-20T06:12:30.111Z,41.60
2022-09-20T06:15:49.635Z,39.80
2022-09-20T06:18:59.459Z,48.67
2022-09-20T06:21:56.184Z,44.50
2022-09-20T06:25:14.720Z,56.17
2022-09-20T06:28:19.327Z,53.90
2022-09-20T06:30:51.828Z,48.23
2022-09-20T06:33:30.299Z,41.13
2022-09-20T06:36:55.299Z,38.73
2022-09-20T06:40:51.936Z,26.73
2022-09-20T06:43:19.593Z,34.23
2022-09-20T06:45:48.354Z,35.67
2022-09-20T06:48:16.366Z,27.67
2022-09-20T06:50:45.386Z,33.73
2022-09-20T06:53:31.070Z,37.10
2022-09-20T06:56:07.043Z,30.80
2022-09-20T06:58:34.798Z,27.53
2022-09-20T07:01:02.440Z,37.67
2022-09-20T07:03:31.826Z,39.03
2022-09-20T07:06:05.702Z,44.33
2022-09-20T07:08:33.879Z,21.00
2022-09-20T07:11:16.558Z,29.73
2022-09-20T07:13:50.268Z,25.47
2022-09-20T07:16:18.376Z,24.27
2022-09-20T07:18:48.197Z,31.40
2022-09-20T07:21:20.901Z,32.40
2022-09-20T07:23:50.179Z,21.43
2022-09-20T07:26:30.280Z,32.27
2022-09-20T07:29:00.844Z,18.87
2022-09-20T07:31:30.470Z,22.53
2022-09-20T07:33:58.627Z,28.40
2022-09-20T07:36:26.301Z,15.23
2022-09-20T07:38:54.304Z,13.27
2022-09-20T07:41:23.355Z,18.90
2022-09-20T07:43:51.240Z,18.87
2022-09-20T07:46:20.777Z,11.90
2022-09-20T07:48:48.486Z,13.80
2022-09-20T07:51:16.083Z,14.60
2022-09-20T07:53:43.700Z,10.37
2022-09-20T07:56:18.424Z,13.53
2022-09-20T07:58:49.941Z,14.43
2022-09-20T08:01:22.242Z,12.00
2022-09-20T08:03:50.202Z,11.40
2022-09-20T08:06:18.852Z,9.33
2022-09-20T08:08:47.531Z,9.40
2022-09-20T08:11:27.926Z,8.17
2022-09-20T08:14:08.870Z,9.40
2022-09-20T08:16:50.517Z,13.80
2022-09-20T08:19:27.771Z,9.60
2022-09-20T08:21:55.916Z,7.50
2022-09-20T08:24:26.201Z,5.17
2022-09-20T08:26:53.990Z,6.43
2022-09-20T08:29:21.583Z,8.57
2022-09-20T08:31:49.498Z,12.83
2022-09-20T08:34:18.508Z,4.60
2022-09-20T08:36:47.633Z,8.07
2022-09-20T08:42:34.377Z,11.53
2022-09-20T08:45:34.417Z,6.47
2022-09-20T08:48:14.439Z,5.30
2022-09-20T08:50:42.378Z,8.20
2022-09-20T08:53:20.963Z,5.23
2022-09-20T08:55:49.563Z,5.83
2022-09-20T08:58:17.275Z,5.57
2022-09-20T09:00:47.565Z,8.50
2022-09-20T09:03:18.474Z,8.73
2022-09-20T09:05:55.198Z,9.50
2022-09-20T09:08:38.347Z,8.37
2022-09-20T09:11:15.484Z,5.73
2022-09-20T09:14:32.618Z,6.80
2022-09-20T09:17:00.973Z,4.63
2022-09-20T09:19:49.780Z,6.60
2022-09-20T09:22:44.151Z,6.30
2022-09-20T09:25:34.520Z,4.60
2022-09-20T09:28:13.941Z,6.27
2022-09-20T09:30:50.590Z,6.20
2022-09-20T09:33:34.969Z,9.07
2022-09-20T09:36:26.252Z,6.67
2022-09-20T09:39:35.557Z,6.70
2022-09-20T09:42:28.946Z,5.70
2022-09-20T09:45:28.730Z,9.53
2022-09-20T09:48:00.196Z,10.20
2022-09-20T09:50:34.929Z,5.30
2022-09-20T09:53:21.407Z,4.37
2022-09-20T09:56:57.412Z,4.30
2022-09-20T10:00:20.529Z,5.63
2022-09-20T10:03:44.795Z,6.27
2022-09-20T10:06:40.164Z,7.20
2022-09-20T10:10:07.458Z,6.13
2022-09-20T10:13:35.021Z,5.97
2022-09-20T10:16:59.950Z,8.17
2022-09-20T10:20:09.794Z,7.77
2022-09-20T10:23:58.996Z,4.50
2022-09-20T10:27:13.931Z,7.63
2022-09-20T10:30:17.333Z,5.77
2022-09-20T10:33:24.012Z,3.67
2022-09-20T10:36:16.448Z,5.00
2022-09-20T10:39:41.335Z,4.30
2022-09-20T10:43:12.038Z,4.43
2022-09-20T10:46:42.733Z,4.57
2022-09-20T10:49:50.676Z,4.03
2022-09-20T10:53:11.459Z,7.50
2022-09-20T10:56:40.254Z,4.97
2022-09-20T10:59:40.551Z,4.07
2022-09-20T11:03:06.700Z,7.43
2022-09-20T11:06:50.910Z,5.10
2022-09-20T11:09:34.461Z,7.63
2022-09-20T11:12:33.021Z,7.00
2022-09-20T11:15:32.499Z,5.33
2022-09-20T11:18:40.397Z,4.80
2022-09-20T11:21:46.276Z,5.73
2022-09-20T11:24:44.330Z,3.43
2022-09-20T11:27:51.727Z,3.40
2022-09-20T11:30:24.551Z,5.10
2022-09-20T11:33:34.047Z,4.40
2022-09-20T11:36:33.466Z,7.53
2022-09-20T11:39:48.123Z,4.50
2022-09-20T11:42:33.081Z,4.67
2022-09-20T11:45:01.049Z,4.40
2022-09-20T11:47:56.235Z,4.13
2022-09-20T11:51:28.921Z,3.87
2022-09-20T11:54:54.893Z,4.70
2022-09-20T11:57:24.741Z,9.00
2022-09-20T12:00:08.323Z,5.30
2022-09-20T12:02:53.988Z,3.33
2022-09-20T12:05:42.321Z,4.47
2022-09-20T12:08:33.794Z,3.87
2022-09-20T12:11:15.157Z,5.87
2022-09-20T12:14:22.244Z,2.70
2022-09-20T12:16:51.063Z,4.27
2022-09-20T12:19:34.154Z,2.93
2022-09-20T12:22:01.906Z,3.57
2022-09-20T12:24:45.119Z,5.50
2022-09-20T12:27:29.276Z,3.63
2022-09-20T12:30:22.868Z,2.03
2022-09-20T12:33:01.215Z,2.83
2022-09-20T12:35:40.538Z,7.60
2022-09-20T12:38:20.830Z,3.40
2022-09-20T12:41:27.583Z,2.87
2022-09-20T12:44:49.768Z,3.80
2022-09-20T12:47:33.622Z,5.00
2022-09-20T12:50:32.703Z,5.07
2022-09-20T12:53:12.326Z,3.03
2022-09-20T12:56:07.755Z,4.63
2022-09-20T12:58:57.585Z,6.73
2022-09-20T13:01:25.318Z,3.40
2022-09-20T13:03:53.008Z,4.43
2022-09-20T13:06:20.783Z,3.23
2022-09-20T13:09:00.224Z,4.53
2022-09-20T13:12:01.035Z,7.33
2022-09-20T13:14:34.939Z,5.70
2022-09-20T13:17:31.475Z,4.20
2022-09-20T13:20:00.080Z,3.40
2022-09-20T13:22:43.744Z,7.27
2022-09-20T13:25:20.412Z,3.43
2022-09-20T13:28:20.522Z,4.10
2022-09-20T13:30:48.941Z,2.77
2022-09-20T13:33:26.634Z,3.40
2022-09-20T13:35:58.783Z,4.40
2022-09-20T13:38:32.042Z,4.30
2022-09-20T13:41:18.127Z,7.83
2022-09-20T13:43:50.161Z,4.80
2022-09-20T13:46:32.965Z,5.37
2022-09-20T13:49:23.901Z,3.60
2022-09-20T13:51:52.277Z,2.93
2022-09-20T13:54:34.245Z,3.43
2022-09-20T13:57:23.445Z,4.20
2022-09-20T13:59:54.120Z,3.17
2022-09-20T14:02:34.498Z,5.70
2022-09-20T14:05:07.547Z,4.17
2022-09-20T14:07:36.907Z,5.37
2022-09-20T14:10:25.838Z,6.70
2022-09-20T14:12:55.689Z,4.67
2022-09-20T14:15:24.306Z,5.00
2022-09-20T14:17:55.384Z,5.67
2022-09-20T14:20:24.016Z,2.73
2022-09-20T14:22:55.099Z,5.27
2022-09-20T14:25:28.280Z,10.63
2022-09-20T14:28:20.364Z,2.33
2022-09-20T14:30:50.388Z,3.90
2022-09-20T14:33:21.583Z,2.73
2022-09-20T14:35:53.157Z,2.60
2022-09-20T14:38:27.379Z,2.30
2022-09-20T14:40:56.830Z,3.93
2022-09-20T14:43:34.928Z,3.90
2022-09-20T14:46:17.097Z,6.43
2022-09-20T14:48:45.686Z,4.70
2022-09-20T14:51:21.524Z,3.03
2022-09-20T14:54:06.121Z,3.80
2022-09-20T14:56:49.341Z,7.37
2022-09-20T14:59:27.197Z,4.13
2022-09-20T15:02:16.799Z,4.00
2022-09-20T15:05:00.977Z,3.80
2022-09-20T15:07:29.112Z,3.30
2022-09-20T15:09:56.847Z,8.90
2022-09-20T15:12:24.512Z,7.63
2022-09-20T15:14:52.662Z,4.13
2022-09-20T15:17:23.625Z,8.07
2022-09-20T15:19:52.100Z,4.40
2022-09-20T15:22:20.641Z,4.30
2022-09-20T15:24:48.253Z,6.00
2022-09-20T15:27:16.047Z,5.80
2022-09-20T15:29:43.794Z,4.93
2022-09-20T15:32:12.061Z,8.27
2022-09-20T15:34:39.621Z,5.80
2022-09-20T15:37:08.127Z,8.13
2022-09-20T15:39:35.714Z,10.00
2022-09-20T15:42:04.051Z,6.83
2022-09-20T15:44:32.742Z,5.53
2022-09-20T15:47:00.489Z,8.10
2022-09-20T15:49:31.148Z,6.30
2022-09-20T15:51:58.788Z,5.33
2022-09-20T15:54:26.955Z,6.70
2022-09-20T15:56:55.235Z,4.60
2022-09-20T15:59:23.487Z,5.03
2022-09-20T16:01:51.890Z,3.30
2022-09-20T16:04:20.858Z,3.00
2022-09-20T16:06:50.883Z,9.30
2022-09-20T16:09:20.962Z,3.43
2022-09-20T16:11:49.764Z,4.10
2022-09-20T16:14:17.640Z,4.93
2022-09-20T16:16:45.531Z,4.17
2022-09-20T16:19:22.352Z,5.60
2022-09-20T16:21:59.315Z,5.17
2022-09-20T16:24:36.253Z,4.73
2022-09-20T16:27:08.592Z,6.20
2022-09-20T16:29:36.332Z,3.80
2022-09-20T16:32:05.478Z,2.73
2022-09-20T16:34:37.462Z,8.90
2022-09-20T16:37:15.914Z,4.73
2022-09-20T16:39:44.516Z,6.70
2022-09-20T16:42:13.292Z,3.63
2022-09-20T16:44:43.288Z,8.60
2022-09-20T16:47:22.386Z,9.17
2022-09-20T16:49:50.650Z,7.77
2022-09-20T16:52:18.425Z,5.30
2022-09-20T16:54:46.768Z,6.50
2022-09-20T16:57:15.770Z,9.20
2022-09-20T16:59:44.438Z,5.10
2022-09-20T17:02:13.632Z,6.10
2022-09-20T17:04:43.713Z,6.80
2022-09-20T17:07:11.545Z,9.73
2022-09-20T17:09:39.685Z,10.60
2022-09-20T17:12:09.623Z,6.97
2022-09-20T17:14:37.323Z,7.83
2022-09-20T17:17:05.072Z,7.60
2022-09-20T17:19:33.909Z,3.93
2022-09-20T17:22:01.814Z,7.70
2022-09-20T17:24:30.332Z,4.70
2022-09-20T17:26:59.113Z,5.30
2022-09-20T17:29:27.712Z,7.10
2022-09-20T17:31:59.662Z,3.73
2022-09-20T17:34:29.699Z,5.17
2022-09-20T17:36:57.515Z,9.07
2022-09-20T17:39:25.561Z,8.63
2022-09-20T17:41:53.400Z,2.43
2022-09-20T17:44:21.221Z,5.77
2022-09-20T17:46:54.145Z,3.87
2022-09-20T17:49:24.465Z,5.37
2022-09-20T17:51:56.204Z,4.83
2022-09-20T17:54:25.525Z,6.23
2022-09-20T17:56:56.194Z,3.90
2022-09-20T17:59:24.945Z,6.33
2022-09-20T18:01:54.595Z,3.00
2022-09-20T18:04:24.674Z,8.90
2022-09-20T18:06:55.544Z,3.90
2022-09-20T18:09:27.361Z,6.30
2022-09-20T18:11:56.813Z,6.23
2022-09-20T18:14:28.482Z,3.67
2022-09-20T18:17:01.632Z,6.03
2022-09-20T18:19:33.547Z,6.40
2022-09-20T18:22:03.471Z,5.20
2022-09-20T18:24:32.360Z,6.73
2022-09-20T18:27:04.586Z,4.97
2022-09-20T18:29:36.818Z,5.60
2022-09-20T18:32:05.535Z,7.17
2022-09-20T18:34:34.202Z,12.60
2022-09-20T18:37:11.114Z,9.83
2022-09-20T18:39:43.005Z,5.57
2022-09-20T18:42:11.073Z,12.10
2022-09-20T18:44:43.194Z,9.03
2022-09-20T18:47:11.204Z,8.67
2022-09-20T18:49:38.808Z,8.83
2022-09-20T18:52:06.769Z,6.63
2022-09-20T18:54:34.350Z,9.73
2022-09-20T18:57:02.843Z,9.37
2022-09-20T18:59:31.278Z,6.13
2022-09-20T19:02:42.533Z,5.27
2022-09-20T19:05:29.778Z,8.30
2022-09-20T19:08:34.926Z,7.10
2022-09-20T19:11:26.260Z,9.50
2022-09-20T19:14:32.563Z,9.03
2022-09-20T19:17:02.344Z,8.80
2022-09-20T19:19:55.251Z,11.43
2022-09-20T19:22:47.140Z,13.20
2022-09-20T19:25:47.614Z,15.07
2022-09-20T19:28:16.765Z,9.70
2022-09-20T19:30:47.461Z,8.97
2022-09-20T19:33:20.703Z,13.80
2022-09-20T19:35:52.728Z,12.53
2022-09-20T19:38:56.685Z,15.33
2022-09-20T19:42:20.715Z,16.83
2022-09-20T19:45:32.397Z,12.40
2022-09-20T19:48:39.613Z,12.73
2022-09-20T19:51:14.090Z,13.20
2022-09-20T19:53:42.704Z,13.00
2022-09-20T19:56:28.304Z,11.13
2022-09-20T19:58:59.716Z,10.80
2022-09-20T20:01:28.108Z,13.90
2022-09-20T20:03:57.150Z,13.60
2022-09-20T20:07:02.611Z,11.40
2022-09-20T20:10:26.757Z,14.53
2022-09-20T20:13:51.471Z,18.13
2022-09-20T20:17:01.928Z,17.73
2022-09-20T20:20:40.759Z,16.83
2022-09-20T20:23:48.990Z,14.27
2022-09-20T20:26:26.606Z,15.90
2022-09-20T20:28:54.584Z,17.00
2022-09-20T20:31:23.341Z,16.70
2022-09-20T20:33:51.455Z,15.83
2022-09-20T20:36:19.190Z,18.07
2022-09-20T20:38:50.005Z,19.67
2022-09-20T20:41:23.710Z,22.80
2022-09-20T20:43:56.431Z,18.63
2022-09-20T20:46:26.129Z,14.93
2022-09-20T20:48:53.916Z,17.87
2022-09-20T20:51:24.317Z,18.50
2022-09-20T20:53:55.090Z,16.93
2022-09-20T20:56:30.101Z,20.70
2022-09-20T20:59:02.548Z,17.00
2022-09-20T21:01:38.532Z,21.63
2022-09-20T21:04:08.385Z,21.10
2022-09-20T21:06:40.837Z,18.97
2022-09-20T21:09:10.935Z,24.87
2022-09-20T21:11:46.740Z,24.83
2022-09-20T21:14:16.060Z,33.50
2022-09-20T21:16:45.135Z,22.50
2022-09-20T21:19:16.578Z,20.07
2022-09-20T21:21:48.021Z,19.63
2022-09-20T21:24:17.463Z,16.27
2022-09-20T21:26:46.949Z,15.73
2022-09-20T21:29:17.003Z,16.20
2022-09-20T21:31:47.253Z,20.63
2022-09-20T21:34:16.880Z,22.97
2022-09-20T21:36:46.194Z,15.90
2022-09-20T21:39:15.273Z,21.30
2022-09-20T21:41:46.937Z,18.07
2022-09-20T21:44:16.130Z,20.90
2022-09-20T21:46:45.435Z,18.03
2022-09-20T21:49:14.966Z,16.10
2022-09-20T21:51:44.070Z,12.33
2022-09-20T21:54:12.129Z,19.70
2022-09-20T21:56:41.598Z,17.50
2022-09-20T21:59:09.977Z,15.97
2022-09-20T22:01:40.278Z,15.73
2022-09-20T22:04:12.884Z,18.20
2022-09-20T22:06:45.346Z,14.70
2022-09-20T22:09:18.117Z,13.23
2022-09-20T22:11:49.171Z,19.80
2022-09-20T22:14:19.907Z,12.63
2022-09-20T22:16:51.415Z,13.60
2022-09-20T22:19:20.570Z,13.77
2022-09-20T22:21:51.503Z,14.77
2022-09-20T22:24:19.983Z,14.87
2022-09-20T22:26:51.587Z,17.70
2022-09-20T22:29:20.310Z,16.43
2022-09-20T22:31:50.348Z,18.30
2022-09-20T22:34:24.860Z,18.30
2022-09-20T22:36:52.570Z,17.53
2022-09-20T22:39:20.370Z,18.63
2022-09-20T22:41:48.154Z,25.40
2022-09-20T22:44:16.428Z,25.47
2022-09-20T22:46:44.100Z,17.97
2022-09-20T22:49:11.945Z,19.60
2022-09-20T22:51:40.141Z,16.83
2022-09-20T22:54:12.467Z,18.60
2022-09-20T22:56:44.015Z,15.77
2022-09-20T22:59:15.175Z,20.17
2022-09-20T23:01:48.139Z,20.80
2022-09-20T23:04:22.345Z,25.53
2022-09-20T23:06:57.749Z,25.40
2022-09-20T23:09:30.556Z,28.43
2022-09-20T23:11:58.907Z,21.83
2022-09-20T23:14:26.425Z,22.47
2022-09-20T23:16:54.093Z,26.33
2022-09-20T23:19:22.065Z,23.20
2022-09-20T23:21:49.683Z,25.00
2022-09-20T23:24:17.283Z,28.77
2022-09-20T23:26:46.044Z,24.00
2022-09-20T23:29:16.968Z,23.13
2022-09-20T23:31:48.025Z,27.27
2022-09-20T23:34:17.552Z,23.43
2022-09-20T23:36:47.163Z,18.03
2022-09-20T23:39:16.010Z,21.07
2022-09-20T23:41:49.972Z,20.97
2022-09-20T23:44:19.267Z,17.13
2022-09-20T23:46:46.867Z,14.60
2022-09-20T23:49:14.585Z,17.93
2022-09-20T23:51:42.234Z,15.87
2022-09-20T23:54:09.949Z,25.33
2022-09-20T23:56:37.638Z,14.90
2022-09-20T23:59:05.268Z,22.70
